Time;durP1;ratioP1;P1;durP2;ratioP2;P2;SDS_P1;SDS_P2;PMS_P1;PMS_P2;Temp;Humidity;BMP_temperature;BMP_pressure;BME280_temperature;BME280_humidity;BME280_pressure;Samples;Min_cycle;Max_cycle;Signal;HPM_P1;HPM_P2
2022/01/19 00:01:58;;;;;;;83.25;32.83;;;;;;;;;;6269264;28;20021;-70
2022/01/19 00:04:59;;;;;;;90.00;31.75;;;;;;;;;;6269283;28;20052;-70
2022/01/19 00:07:59;;;;;;;75.28;31.58;;;;;;;;;;6269173;28;20392;-70
2022/01/19 00:10:59;;;;;;;70.28;31.45;;;;;;;;;;6252635;28;20022;-70
2022/01/19 00:13:59;;;;;;;63.45;20.45;;;;;;;;;;6245067;28;20477;-70
2022/01/19 00:17:00;;;;;;;57.20;28.25;;;;;;;;;;6244637;28;20005;-70
2022/01/19 00:20:00;;;;;;;70.57;31.10;;;;;;;;;;6244358;28;20014;-70
2022/01/19 00:23:02;;;;;;;72.38;30.67;;;;;;;;;;6244262;28;20022;-70
2022/01/19 00:26:02;;;;;;;61.17;27.25;;;;;;;;;;6247883;28;20024;-70
2022/01/19 00:29:02;;;;;;;40.78;17.65;;;;;;;;;;6252962;28;20052;-70
2022/01/19 00:32:03;;;;;;;36.67;18.02;;;;;;;;;;6268899;28;20025;-70
2022/01/19 00:35:03;;;;;;;37.42;16.52;;;;;;;;;;6267985;28;20128;-69
2022/01/19 00:38:05;;;;;;;63.03;22.50;;;;;;;;;;6267340;28;20770;-70
2022/01/19 00:41:06;;;;;;;;;;;;;;;;;;6269102;28;20047;-70
2022/01/19 00:44:06;;;;;;;35.63;14.07;;;;;;;;;;6266110;28;20264;-70
2022/01/19 00:47:06;;;;;;;40.63;18.25;;;;;;;;;;6244004;28;20047;-70
2022/01/19 00:50:08;;;;;;;48.70;20.98;;;;;;;;;;6243649;28;20017;-69
2022/01/19 00:53:08;;;;;;;24.50;10.07;;;;;;;;;;6243627;28;20477;-69
2022/01/19 00:56:08;;;;;;;46.60;18.75;;;;;;;;;;6248127;28;20024;-69
2022/01/19 00:59:08;;;;;;;49.10;20.15;;;;;;;;;;6268091;28;20502;-70
2022/01/19 01:02:09;;;;;;;53.17;24.55;;;;;;;;;;6268812;28;20028;-69
2022/01/19 01:05:09;;;;;;;31.88;16.30;;;;;;;;;;6268117;28;20104;-69
2022/01/19 01:08:10;;;;;;;41.42;17.70;;;;;;;;;;6267588;28;20021;-70
2022/01/19 01:11:10;;;;;;;68.70;26.58;;;;;;;;;;6249504;28;20018;-69
2022/01/19 01:20:51;;;;;;;36.38;18.67;;;;;;;;;;6243683;28;20029;-69
2022/01/19 01:23:51;;;;;;;53.33;20.77;;;;;;;;;;6243387;28;20087;-69
2022/01/19 01:26:52;;;;;;;36.92;15.93;;;;;;;;;;6248599;28;20025;-70
2022/01/19 01:29:52;;;;;;;40.22;15.23;;;;;;;;;;6243943;28;20101;-70
2022/01/19 01:32:52;;;;;;;33.45;18.55;;;;;;;;;;6242899;28;20462;-69
2022/01/19 01:35:53;;;;;;;41.10;20.73;;;;;;;;;;6243705;28;20173;-69
2022/01/19 01:38:53;;;;;;;69.75;26.90;;;;;;;;;;6244306;28;20029;-69
2022/01/19 01:41:53;;;;;;;55.75;24.70;;;;;;;;;;6267343;28;20465;-69
2022/01/19 01:44:57;;;;;;;64.97;27.13;;;;;;;;;;6259306;28;20013;-69
2022/01/19 01:54:24;;;;;;;61.83;23.67;;;;;;;;;;6242517;28;20034;-69
2022/01/19 01:57:25;;;;;;;61.15;28.13;;;;;;;;;;6257586;28;20028;-69
2022/01/19 02:00:25;;;;;;;52.15;26.88;;;;;;;;;;6267448;28;20469;-70
2022/01/19 02:03:26;;;;;;;42.22;16.63;;;;;;;;;;6266934;28;20021;-69
2022/01/19 02:06:32;;;;;;;44.03;18.83;;;;;;;;;;6267378;28;20025;-70
2022/01/19 02:09:36;;;;;;;33.75;14.27;;;;;;;;;;6260276;28;20482;-69
2022/01/19 02:16:18;;;;;;;59.95;22.20;;;;;;;;;;6242438;28;20033;-70
2022/01/19 02:22:40;;;;;;;39.17;17.30;;;;;;;;;;6247159;28;20357;-69
2022/01/19 02:25:43;;;;;;;35.45;16.85;;;;;;;;;;6247168;28;20051;-69
2022/01/19 02:42:08;;;;;;;38.50;19.23;;;;;;;;;;6271753;28;20496;-69
2022/01/19 02:51:28;;;;;;;61.17;23.40;;;;;;;;;;6246807;28;20025;-69
2022/01/19 02:54:29;;;;;;;68.28;26.88;;;;;;;;;;6246493;28;20068;-69
2022/01/19 02:57:34;;;;;;;54.00;21.03;;;;;;;;;;6262275;28;20028;-69
2022/01/19 03:10:16;;;;;;;56.95;22.67;;;;;;;;;;6247495;28;20032;-70
2022/01/19 03:13:16;;;;;;;48.60;20.77;;;;;;;;;;6247384;28;20350;-70
2022/01/19 03:16:18;;;;;;;52.08;19.92;;;;;;;;;;6245807;28;20079;-69
2022/01/19 03:19:18;;;;;;;58.53;23.20;;;;;;;;;;6245810;28;20013;-70
2022/01/19 03:22:23;;;;;;;41.25;16.85;;;;;;;;;;6255430;28;20023;-70
2022/01/19 03:25:23;;;;;;;54.53;20.77;;;;;;;;;;6270026;28;20481;-69
2022/01/19 03:28:24;;;;;;;46.15;22.10;;;;;;;;;;6254920;28;20028;-69
2022/01/19 03:31:24;;;;;;;48.97;21.27;;;;;;;;;;6269914;28;20392;-69
2022/01/19 03:34:24;;;;;;;56.45;20.98;;;;;;;;;;6269599;28;20048;-69
2022/01/19 03:37:25;;;;;;;47.08;19.33;;;;;;;;;;6268963;28;20021;-70
2022/01/19 03:40:25;;;;;;;35.25;15.90;;;;;;;;;;6270076;28;20370;-69
2022/01/19 03:43:25;;;;;;;33.30;13.07;;;;;;;;;;6269901;28;20013;-69
2022/01/19 03:46:33;;;;;;;30.33;12.93;;;;;;;;;;6248793;28;20060;-70
2022/01/19 03:49:34;;;;;;;50.35;21.65;;;;;;;;;;6244948;28;20090;-69
2022/01/19 03:52:34;;;;;;;35.60;17.15;;;;;;;;;;6245030;28;20049;-69
2022/01/19 03:55:34;;;;;;;46.15;16.98;;;;;;;;;;6244351;28;20024;-69
2022/01/19 03:58:36;;;;;;;46.10;19.45;;;;;;;;;;6269885;28;20023;-70
2022/01/19 04:01:36;;;;;;;51.10;20.10;;;;;;;;;;6269477;28;20369;-72
2022/01/19 04:04:52;;;;;;;43.90;20.30;;;;;;;;;;6269142;28;20283;-70
2022/01/19 04:07:52;;;;;;;52.60;23.77;;;;;;;;;;6269469;28;20104;-70
2022/01/19 04:10:52;;;;;;;55.70;24.85;;;;;;;;;;6267290;28;20025;-70
2022/01/19 04:14:21;;;;;;;52.03;22.58;;;;;;;;;;6267320;28;20020;-69
2022/01/19 04:17:19;;;;;;;47.38;21.17;;;;;;;;;;6268935;28;20041;-69
2022/01/19 04:20:22;;;;;;;47.30;19.08;;;;;;;;;;6268857;28;20032;-69
2022/01/19 04:23:22;;;;;;;42.58;19.90;;;;;;;;;;6269185;28;20048;-70
2022/01/19 04:26:22;;;;;;;54.35;22.90;;;;;;;;;;6267964;28;20017;-69
2022/01/19 04:29:23;;;;;;;42.78;17.35;;;;;;;;;;6254262;28;20074;-69
2022/01/19 04:32:40;;;;;;;52.15;21.42;;;;;;;;;;6268865;28;20488;-69
2022/01/19 04:35:47;;;;;;;54.50;21.67;;;;;;;;;;6266365;28;20049;-69
2022/01/19 05:05:15;;;;;;;50.00;20.52;;;;;;;;;;6260110;28;20017;-69
2022/01/19 05:13:52;;;;;;;66.75;25.67;;;;;;;;;;6244500;28;20033;-69
2022/01/19 05:16:53;;;;;;;66.97;28.48;;;;;;;;;;6243254;28;20017;-69
2022/01/19 05:19:53;;;;;;;68.55;26.00;;;;;;;;;;6242887;28;20405;-69
2022/01/19 05:22:53;;;;;;;62.35;28.13;;;;;;;;;;6243433;28;20097;-69
2022/01/19 05:25:53;;;;;;;81.63;31.55;;;;;;;;;;6245232;28;20152;-69
2022/01/19 05:28:54;;;;;;;75.45;29.25;;;;;;;;;;6252340;28;20214;-69
2022/01/19 05:31:54;;;;;;;61.63;24.95;;;;;;;;;;6267495;28;20037;-69
2022/01/19 05:34:54;;;;;;;60.38;26.40;;;;;;;;;;6267066;28;20037;-69
2022/01/19 05:37:54;;;;;;;76.72;29.85;;;;;;;;;;6266470;28;20112;-69
2022/01/19 05:40:55;;;;;;;66.15;30.00;;;;;;;;;;6267701;28;20021;-69
2022/01/19 05:43:55;;;;;;;62.47;26.67;;;;;;;;;;6266546;28;20096;-70
2022/01/19 05:46:56;;;;;;;69.30;28.10;;;;;;;;;;6245325;28;20056;-70
2022/01/19 05:49:56;;;;;;;66.47;26.58;;;;;;;;;;6242552;28;20116;-69
2022/01/19 05:52:56;;;;;;;55.83;25.08;;;;;;;;;;6242994;28;20031;-70
2022/01/19 05:55:56;;;;;;;58.47;23.90;;;;;;;;;;6249996;28;20016;-70
2022/01/19 05:58:57;;;;;;;57.67;23.27;;;;;;;;;;6272593;28;20074;-69
2022/01/19 06:01:58;;;;;;;100.18;37.47;;;;;;;;;;6271940;28;20100;-69
2022/01/19 06:04:58;;;;;;;92.20;35.65;;;;;;;;;;6272052;28;20048;-70
2022/01/19 06:08:29;;;;;;;69.40;31.95;;;;;;;;;;6264375;28;20535;-69
2022/01/19 06:11:29;;;;;;;61.78;27.92;;;;;;;;;;6249174;28;20488;-69
2022/01/19 06:14:29;;;;;;;60.95;25.67;;;;;;;;;;6250505;28;20042;-69
2022/01/19 06:17:29;;;;;;;67.72;28.95;;;;;;;;;;6257357;28;20102;-69
2022/01/19 06:20:30;;;;;;;73.03;29.63;;;;;;;;;;6257395;28;20025;-70
2022/01/19 06:23:30;;;;;;;82.85;31.77;;;;;;;;;;6259835;28;20096;-70
2022/01/19 06:26:30;;;;;;;67.43;28.08;;;;;;;;;;6252607;28;20507;-70
2022/01/19 06:29:30;;;;;;;87.78;35.33;;;;;;;;;;6252005;28;20021;-70
2022/01/19 06:32:31;;;;;;;88.50;34.63;;;;;;;;;;6246639;28;20147;-70
2022/01/19 06:35:31;;;;;;;98.18;41.03;;;;;;;;;;6247320;28;20080;-70
2022/01/19 06:38:31;;;;;;;127.65;55.95;;;;;;;;;;6246285;28;20026;-70
2022/01/19 06:41:32;;;;;;;79.32;38.67;;;;;;;;;;6258656;28;20045;-70
2022/01/19 06:44:32;;;;;;;82.10;32.42;;;;;;;;;;6253948;28;20033;-70
2022/01/19 06:47:33;;;;;;;65.97;25.40;;;;;;;;;;6256941;28;20020;-70
2022/01/19 06:50:33;;;;;;;74.50;27.20;;;;;;;;;;6260209;28;20496;-70
2022/01/19 06:53:34;;;;;;;35.65;18.67;;;;;;;;;;6260562;28;20547;-70
2022/01/19 06:56:37;;;;;;;48.20;22.38;;;;;;;;;;6258204;28;20021;-70
2022/01/19 06:59:38;;;;;;;47.38;23.42;;;;;;;;;;6256421;28;20062;-70
2022/01/19 07:02:38;;;;;;;69.82;29.35;;;;;;;;;;6260517;28;20367;-70
2022/01/19 07:05:39;;;;;;;36.67;16.58;;;;;;;;;;6244982;28;20388;-70
2022/01/19 07:08:39;;;;;;;56.10;26.75;;;;;;;;;;6246626;28;20068;-70
2022/01/19 07:11:40;;;;;;;67.43;25.13;;;;;;;;;;6247919;28;20021;-70
2022/01/19 07:14:40;;;;;;;32.20;17.27;;;;;;;;;;6252439;28;20385;-70
2022/01/19 07:17:41;;;;;;;38.38;20.20;;;;;;;;;;6263325;28;20017;-70
2022/01/19 07:20:41;;;;;;;62.72;30.60;;;;;;;;;;6260656;28;20059;-70
2022/01/19 07:23:41;;;;;;;73.55;31.85;;;;;;;;;;6267397;28;20013;-70
2022/01/19 07:26:42;;;;;;;55.25;25.90;;;;;;;;;;6265005;28;20374;-70
2022/01/19 07:29:42;;;;;;;50.25;21.50;;;;;;;;;;6257698;28;20028;-71
2022/01/19 07:32:43;;;;;;;33.00;15.55;;;;;;;;;;6247096;28;20053;-70
2022/01/19 07:35:45;;;;;;;37.20;21.30;;;;;;;;;;6245816;28;20033;-70
2022/01/19 07:38:45;;;;;;;57.05;23.48;;;;;;;;;;6265119;28;20433;-69
2022/01/19 07:41:46;;;;;;;66.38;28.38;;;;;;;;;;6260547;28;20025;-70
2022/01/19 07:44:46;;;;;;;33.63;16.35;;;;;;;;;;6250805;28;20481;-70
2022/01/19 07:47:46;;;;;;;35.88;15.90;;;;;;;;;;6245056;28;20024;-70
2022/01/19 07:50:47;;;;;;;41.72;20.30;;;;;;;;;;6245740;28;20060;-70
2022/01/19 07:53:47;;;;;;;51.72;21.50;;;;;;;;;;6244915;28;20040;-69
2022/01/19 07:56:47;;;;;;;61.33;23.15;;;;;;;;;;6254694;28;20063;-69
2022/01/19 07:59:48;;;;;;;48.53;21.40;;;;;;;;;;6261933;28;20020;-69
2022/01/19 08:02:49;;;;;;;47.67;23.67;;;;;;;;;;6255499;28;20021;-69
2022/01/19 08:05:49;;;;;;;32.33;14.55;;;;;;;;;;6265622;28;20021;-69
2022/01/19 08:08:50;;;;;;;32.58;13.93;;;;;;;;;;6246644;28;20433;-69
2022/01/19 08:11:50;;;;;;;31.70;16.58;;;;;;;;;;6246863;28;20030;-68
2022/01/19 08:14:50;;;;;;;32.90;15.45;;;;;;;;;;6245351;28;20023;-68
2022/01/19 08:17:50;;;;;;;25.85;11.90;;;;;;;;;;6252303;28;20044;-68
2022/01/19 08:20:51;;;;;;;22.05;11.95;;;;;;;;;;6268471;28;20009;-68
2022/01/19 08:23:51;;;;;;;28.80;13.95;;;;;;;;;;6252284;28;20439;-68
2022/01/19 08:26:54;;;;;;;29.17;14.65;;;;;;;;;;6259145;28;20040;-68
2022/01/19 08:29:55;;;;;;;45.80;18.05;;;;;;;;;;6258368;28;20031;-68
2022/01/19 08:32:55;;;;;;;26.02;15.25;;;;;;;;;;6252586;28;20564;-68
2022/01/19 08:35:55;;;;;;;25.15;14.40;;;;;;;;;;6253698;28;20076;-68
2022/01/19 08:38:56;;;;;;;34.75;17.15;;;;;;;;;;6253917;28;20476;-68
2022/01/19 08:41:56;;;;;;;27.52;13.80;;;;;;;;;;6252341;28;20314;-68
2022/01/19 08:44:56;;;;;;;37.10;16.58;;;;;;;;;;6246614;28;20108;-68
2022/01/19 08:47:56;;;;;;;30.33;14.80;;;;;;;;;;6249881;28;20257;-68
2022/01/19 08:50:57;;;;;;;30.33;13.25;;;;;;;;;;6255547;28;20033;-68
2022/01/19 08:53:57;;;;;;;26.02;12.77;;;;;;;;;;6257139;28;20036;-68
2022/01/19 08:56:57;;;;;;;37.85;14.60;;;;;;;;;;6260441;28;20061;-68
2022/01/19 08:59:58;;;;;;;35.67;17.63;;;;;;;;;;6251234;28;20017;-68
2022/01/19 09:02:58;;;;;;;28.48;12.00;;;;;;;;;;6255323;28;20381;-68
2022/01/19 09:05:58;;;;;;;35.92;18.45;;;;;;;;;;6255426;28;20052;-68
2022/01/19 09:08:58;;;;;;;26.27;14.77;;;;;;;;;;6254216;28;20018;-68
2022/01/19 09:11:59;;;;;;;36.00;13.77;;;;;;;;;;6255060;28;20017;-69
2022/01/19 09:14:59;;;;;;;56.92;23.23;;;;;;;;;;6259799;28;20063;-68
2022/01/19 09:17:59;;;;;;;73.93;29.92;;;;;;;;;;6253121;28;20142;-68
2022/01/19 09:20:59;;;;;;;49.45;21.42;;;;;;;;;;6253573;28;20025;-69
2022/01/19 09:24:00;;;;;;;47.90;21.50;;;;;;;;;;6259038;28;20048;-69
2022/01/19 09:27:01;;;;;;;30.40;14.48;;;;;;;;;;6260872;28;20040;-69
2022/01/19 09:30:01;;;;;;;39.95;19.52;;;;;;;;;;6246067;28;20025;-69
2022/01/19 09:33:10;;;;;;;43.08;20.35;;;;;;;;;;6241410;28;20035;-69
2022/01/19 09:39:28;;;;;;;39.67;17.40;;;;;;;;;;6253098;28;20056;-69
2022/01/19 09:42:29;;;;;;;36.95;16.73;;;;;;;;;;6250709;28;20022;-69
2022/01/19 09:45:29;;;;;;;28.75;16.10;;;;;;;;;;6250891;28;20367;-69
2022/01/19 09:48:30;;;;;;;37.28;19.45;;;;;;;;;;6257167;28;20021;-70
2022/01/19 09:51:30;;;;;;;29.98;14.98;;;;;;;;;;6243753;28;20025;-70
2022/01/19 09:54:31;;;;;;;32.67;15.73;;;;;;;;;;6249356;28;20025;-71
2022/01/19 09:57:32;;;;;;;27.95;12.13;;;;;;;;;;6267472;28;20488;-71
2022/01/19 10:00:33;;;;;;;33.35;16.52;;;;;;;;;;6244854;28;20233;-71
2022/01/19 10:03:33;;;;;;;21.30;10.93;;;;;;;;;;6252363;28;20021;-71
2022/01/19 10:06:33;;;;;;;29.27;11.00;;;;;;;;;;6253913;28;20057;-72
2022/01/19 10:09:45;;;;;;;29.17;12.75;;;;;;;;;;6248056;28;20112;-72
2022/01/19 10:19:23;;;;;;;20.13;11.43;;;;;;;;;;6251255;28;20693;-73
2022/01/19 10:22:25;;;;;;;21.23;11.00;;;;;;;;;;6248250;28;20028;-73
2022/01/19 10:25:25;;;;;;;;;;;;;;;;;;6250635;28;20055;-73
2022/01/19 10:28:26;;;;;;;24.92;13.50;;;;;;;;;;6256600;28;19909;-73
2022/01/19 10:31:26;;;;;;;23.58;10.02;;;;;;;;;;6248562;28;20032;-73
2022/01/19 10:34:27;;;;;;;26.27;12.70;;;;;;;;;;6247654;28;20053;-74
2022/01/19 10:37:28;;;;;;;25.48;11.43;;;;;;;;;;6253168;28;20088;-75
2022/01/19 10:40:28;;;;;;;21.37;11.33;;;;;;;;;;6251303;28;20072;-75
2022/01/19 10:43:33;;;;;;;18.83;9.80;;;;;;;;;;6254269;28;20024;-76
2022/01/19 10:46:34;;;;;;;25.50;11.23;;;;;;;;;;6259634;28;20021;-76
2022/01/19 10:49:53;;;;;;;23.55;11.88;;;;;;;;;;6256797;28;20152;-76
2022/01/19 10:52:54;;;;;;;29.88;14.13;;;;;;;;;;6258717;28;20485;-77
2022/01/19 10:55:55;;;;;;;30.17;14.05;;;;;;;;;;6256587;28;20461;-77
2022/01/19 10:58:56;;;;;;;30.25;11.85;;;;;;;;;;6267619;28;20013;-77
2022/01/19 11:01:58;;;;;;;23.60;11.15;;;;;;;;;;6259999;28;20025;-78
2022/01/19 11:04:59;;;;;;;27.10;9.95;;;;;;;;;;6255414;28;20059;-78
2022/01/19 11:07:59;;;;;;;22.13;10.70;;;;;;;;;;6250593;28;20501;-78
2022/01/19 11:11:01;;;;;;;15.23;9.70;;;;;;;;;;6257125;28;20033;-78
2022/01/19 11:14:04;;;;;;;32.47;14.70;;;;;;;;;;6256729;28;21329;-78
2022/01/19 11:17:04;;;;;;;30.77;14.55;;;;;;;;;;6259393;28;20027;-78
2022/01/19 11:20:08;;;;;;;30.40;14.07;;;;;;;;;;6254478;28;20363;-78
2022/01/19 11:23:15;;;;;;;20.40;12.52;;;;;;;;;;6256932;28;20075;-78
2022/01/19 11:26:16;;;;;;;29.48;14.50;;;;;;;;;;6251471;28;20024;-78
2022/01/19 11:29:18;;;;;;;32.72;13.43;;;;;;;;;;6245821;28;20381;-78
2022/01/19 11:32:19;;;;;;;22.50;11.40;;;;;;;;;;6245667;28;20439;-78
2022/01/19 11:35:34;;;;;;;39.72;19.58;;;;;;;;;;6249680;28;20731;-78
2022/01/19 11:38:34;;;;;;;19.77;9.93;;;;;;;;;;6249385;28;20029;-77
2022/01/19 11:42:04;;;;;;;19.80;10.98;;;;;;;;;;6267503;28;20040;-77
2022/01/19 11:45:08;;;;;;;24.77;10.23;;;;;;;;;;6252671;28;20044;-76
2022/01/19 11:48:13;;;;;;;25.70;10.80;;;;;;;;;;6260036;28;20029;-76
2022/01/19 11:51:25;;;;;;;14.52;8.18;;;;;;;;;;6261268;28;20580;-76
2022/01/19 11:54:25;;;;;;;22.77;11.32;;;;;;;;;;6256016;28;20031;-75
2022/01/19 11:57:26;;;;;;;18.67;9.30;;;;;;;;;;6253656;28;20029;-75
2022/01/19 12:00:33;;;;;;;22.57;11.43;;;;;;;;;;6254861;28;20388;-75
2022/01/19 12:03:38;;;;;;;30.42;12.88;;;;;;;;;;6256057;28;20067;-75
2022/01/19 12:06:38;;;;;;;20.73;9.85;;;;;;;;;;6253411;28;20060;-75
2022/01/19 12:09:54;;;;;;;31.52;13.93;;;;;;;;;;6260192;28;20029;-75
2022/01/19 12:13:14;;;;;;;28.85;13.23;;;;;;;;;;6259050;28;20018;-75
2022/01/19 12:16:29;;;;;;;17.40;8.32;;;;;;;;;;6250686;28;20087;-75
2022/01/19 12:19:35;;;;;;;21.70;10.63;;;;;;;;;;6258468;28;20102;-76
2022/01/19 12:22:35;;;;;;;26.80;13.40;;;;;;;;;;6257544;28;20013;-75
2022/01/19 12:25:51;;;;;;;32.75;14.57;;;;;;;;;;6250179;28;20389;-75
2022/01/19 12:28:53;;;;;;;17.65;10.95;;;;;;;;;;6256961;28;20108;-75
2022/01/19 12:31:53;;;;;;;;;;;;;;;;;;6243024;28;20460;-76
2022/01/19 12:35:10;;;;;;;19.27;7.78;;;;;;;;;;6243737;28;20367;-75
2022/01/19 12:38:23;;;;;;;16.08;9.20;;;;;;;;;;6246774;28;20529;-75
2022/01/19 12:41:23;;;;;;;18.33;10.50;;;;;;;;;;6254411;28;20021;-75
2022/01/19 12:44:36;;;;;;;19.67;8.60;;;;;;;;;;6250817;28;20021;-75
2022/01/19 12:47:36;;;;;;;24.20;11.15;;;;;;;;;;6252916;28;20397;-75
2022/01/19 12:50:39;;;;;;;19.73;10.13;;;;;;;;;;6268621;28;20025;-74
2022/01/19 12:53:41;;;;;;;25.48;12.00;;;;;;;;;;6253243;28;20280;-74
2022/01/19 12:56:52;;;;;;;25.40;12.30;;;;;;;;;;6251286;28;20439;-74
2022/01/19 12:59:54;;;;;;;30.30;14.15;;;;;;;;;;6259993;28;20096;-74
2022/01/19 13:02:54;;;;;;;21.63;9.15;;;;;;;;;;6254096;28;20025;-74
2022/01/19 13:05:58;;;;;;;38.30;17.13;;;;;;;;;;6262215;28;20021;-74
2022/01/19 13:09:05;;;;;;;27.40;12.27;;;;;;;;;;6255846;28;20036;-74
2022/01/19 13:12:14;;;;;;;27.85;13.38;;;;;;;;;;6246373;28;20021;-74
2022/01/19 13:15:14;;;;;;;28.73;12.35;;;;;;;;;;6244065;28;20362;-74
2022/01/19 13:18:33;;;;;;;23.38;7.65;;;;;;;;;;6254164;28;20188;-74
2022/01/19 13:21:35;;;;;;;19.65;7.22;;;;;;;;;;6248352;28;20055;-74
2022/01/19 13:24:37;;;;;;;;;;;;;;;;;;6249107;28;20381;-74
2022/01/19 13:27:41;;;;;;;23.85;12.13;;;;;;;;;;6257806;28;19916;-74
2022/01/19 13:30:41;;;;;;;26.65;11.98;;;;;;;;;;6256028;28;20476;-74
2022/01/19 13:33:51;;;;;;;28.52;13.63;;;;;;;;;;6254290;28;20046;-74
2022/01/19 13:36:59;;;;;;;29.77;13.00;;;;;;;;;;6256802;28;20033;-74
2022/01/19 13:40:04;;;;;;;23.55;11.77;;;;;;;;;;6253054;28;20022;-74
2022/01/19 13:43:05;;;;;;;19.65;10.25;;;;;;;;;;6247084;28;20080;-74
2022/01/19 13:46:18;;;;;;;21.00;8.77;;;;;;;;;;6250396;28;20035;-74
2022/01/19 13:49:18;;;;;;;19.30;10.93;;;;;;;;;;6244710;28;20322;-74
2022/01/19 13:52:23;;;;;;;21.73;9.90;;;;;;;;;;6255742;28;20088;-74
2022/01/19 13:55:24;;;;;;;29.48;11.95;;;;;;;;;;6252098;28;20381;-74
2022/01/19 13:58:43;;;;;;;30.85;11.80;;;;;;;;;;6252199;28;20025;-74
2022/01/19 14:01:50;;;;;;;23.20;11.15;;;;;;;;;;6255543;28;20250;-74
2022/01/19 14:04:51;;;;;;;27.00;11.88;;;;;;;;;;6244342;28;20100;-74
2022/01/19 14:07:52;;;;;;;23.75;11.85;;;;;;;;;;6244643;28;20116;-74
2022/01/19 14:10:52;;;;;;;33.80;13.52;;;;;;;;;;6246508;28;20017;-74
2022/01/19 14:14:00;;;;;;;28.92;14.52;;;;;;;;;;6248803;28;20076;-74
2022/01/19 14:17:01;;;;;;;29.92;12.82;;;;;;;;;;6246679;28;20533;-74
2022/01/19 14:20:03;;;;;;;27.33;10.75;;;;;;;;;;6263170;28;20046;-74
2022/01/19 14:23:09;;;;;;;43.13;17.08;;;;;;;;;;6271061;28;20398;-74
2022/01/19 14:26:11;;;;;;;38.35;15.77;;;;;;;;;;6260530;28;20473;-74
2022/01/19 14:29:15;;;;;;;45.40;17.33;;;;;;;;;;6245373;28;20033;-74
2022/01/19 14:32:15;;;;;;;25.40;11.68;;;;;;;;;;6252501;28;20022;-74
2022/01/19 14:35:19;;;;;;;35.53;13.15;;;;;;;;;;6245481;28;20531;-74
2022/01/19 14:38:35;;;;;;;22.15;10.65;;;;;;;;;;6261455;28;20083;-74
2022/01/19 14:41:37;;;;;;;22.70;9.38;;;;;;;;;;6260910;28;20029;-74
2022/01/19 14:44:42;;;;;;;29.33;13.95;;;;;;;;;;6256011;28;20435;-74
2022/01/19 14:47:42;;;;;;;43.55;20.95;;;;;;;;;;6257436;28;20028;-74
2022/01/19 14:50:42;;;;;;;76.00;33.03;;;;;;;;;;6257091;28;20013;-75
2022/01/19 14:53:43;;;;;;;79.43;33.97;;;;;;;;;;6252756;28;20033;-75
2022/01/19 14:56:46;;;;;;;81.60;33.78;;;;;;;;;;6264391;28;20029;-75
2022/01/19 14:59:46;;;;;;;54.63;21.25;;;;;;;;;;6260263;28;20021;-75
2022/01/19 15:02:50;;;;;;;36.92;16.85;;;;;;;;;;6271224;28;20032;-75
2022/01/19 15:05:51;;;;;;;46.78;20.48;;;;;;;;;;6261158;28;20028;-75
2022/01/19 15:08:51;;;;;;;40.08;16.42;;;;;;;;;;6266209;28;20021;-75
2022/01/19 15:11:51;;;;;;;35.85;16.40;;;;;;;;;;6255030;28;20021;-75
2022/01/19 15:14:51;;;;;;;35.90;17.30;;;;;;;;;;6250712;28;20022;-75
2022/01/19 15:17:56;;;;;;;38.88;20.45;;;;;;;;;;6244578;28;20024;-75
2022/01/19 15:20:57;;;;;;;62.85;29.10;;;;;;;;;;6271054;28;20020;-75
2022/01/19 15:23:59;;;;;;;43.38;20.73;;;;;;;;;;6270624;28;20377;-75
2022/01/19 15:26:59;;;;;;;37.30;15.85;;;;;;;;;;6263864;28;20025;-75
2022/01/19 15:30:00;;;;;;;57.90;26.80;;;;;;;;;;6251330;28;20401;-75
2022/01/19 15:33:00;;;;;;;52.05;28.33;;;;;;;;;;6272129;28;20484;-75
2022/01/19 15:36:01;;;;;;;51.63;23.88;;;;;;;;;;6288820;28;20067;-75
2022/01/19 15:39:06;;;;;;;55.92;24.73;;;;;;;;;;6256815;28;21296;-75
2022/01/19 15:42:06;;;;;;;49.72;22.42;;;;;;;;;;6255363;28;20013;-75
2022/01/19 15:45:07;;;;;;;44.22;20.90;;;;;;;;;;6264771;28;20118;-75
2022/01/19 15:48:09;;;;;;;38.72;19.10;;;;;;;;;;6254230;28;20500;-75
2022/01/19 15:51:10;;;;;;;58.42;27.95;;;;;;;;;;6265142;28;20520;-75
2022/01/19 15:54:11;;;;;;;58.85;24.92;;;;;;;;;;6251756;28;20036;-75
2022/01/19 15:57:12;;;;;;;51.97;24.05;;;;;;;;;;6254799;28;20064;-75
2022/01/19 16:00:13;;;;;;;48.97;24.33;;;;;;;;;;6255323;28;20014;-75
2022/01/19 16:03:13;;;;;;;64.85;30.10;;;;;;;;;;6255241;28;20104;-75
2022/01/19 16:06:14;;;;;;;64.65;35.58;;;;;;;;;;6251505;28;20029;-75
2022/01/19 16:09:15;;;;;;;94.70;45.72;;;;;;;;;;6253079;28;20559;-75
2022/01/19 16:12:16;;;;;;;91.43;40.80;;;;;;;;;;6249957;28;20040;-75
2022/01/19 16:15:17;;;;;;;70.57;38.47;;;;;;;;;;6254813;28;20048;-75
2022/01/19 16:18:19;;;;;;;77.82;34.78;;;;;;;;;;6253712;28;20474;-75
2022/01/19 16:21:20;;;;;;;80.88;39.58;;;;;;;;;;6244159;28;20123;-75
2022/01/19 16:27:39;;;;;;;116.90;54.33;;;;;;;;;;6260898;28;20032;-75
2022/01/19 16:30:40;;;;;;;100.13;47.17;;;;;;;;;;6256370;28;20055;-75
2022/01/19 16:33:41;;;;;;;89.22;40.22;;;;;;;;;;6255516;28;20119;-75
2022/01/19 16:36:41;;;;;;;69.97;33.10;;;;;;;;;;6255352;28;20397;-75
2022/01/19 16:39:42;;;;;;;102.68;43.25;;;;;;;;;;6254775;28;20020;-75
2022/01/19 16:42:43;;;;;;;98.15;44.38;;;;;;;;;;6254087;28;20048;-75
2022/01/19 16:45:44;;;;;;;97.03;40.30;;;;;;;;;;6255026;28;20029;-75
2022/01/19 16:48:45;;;;;;;110.18;43.85;;;;;;;;;;6254349;28;20024;-75
2022/01/19 16:51:45;;;;;;;86.50;39.40;;;;;;;;;;6267502;28;20036;-74
2022/01/19 16:54:46;;;;;;;86.78;35.90;;;;;;;;;;6259928;28;20478;-74
2022/01/19 16:57:47;;;;;;;98.07;47.28;;;;;;;;;;6259214;28;20021;-74
2022/01/19 17:00:47;;;;;;;80.63;34.47;;;;;;;;;;6259508;28;20530;-74
2022/01/19 17:03:47;;;;;;;72.63;33.00;;;;;;;;;;6251387;28;20025;-73
2022/01/19 17:06:48;;;;;;;79.38;34.75;;;;;;;;;;6246335;28;20014;-73
2022/01/19 17:09:48;;;;;;;202.10;69.40;;;;;;;;;;6250251;28;20381;-73
2022/01/19 17:12:51;;;;;;;91.22;40.88;;;;;;;;;;6258729;28;20024;-73
2022/01/19 17:15:54;;;;;;;70.68;31.48;;;;;;;;;;6254009;28;20075;-74
2022/01/19 17:18:55;;;;;;;56.85;22.20;;;;;;;;;;6262345;28;20013;-74
2022/01/19 17:21:55;;;;;;;71.75;29.20;;;;;;;;;;6241187;28;20018;-74
2022/01/19 17:24:56;;;;;;;76.85;38.13;;;;;;;;;;6241860;28;20493;-74
2022/01/19 17:27:56;;;;;;;93.95;38.75;;;;;;;;;;6248209;28;20080;-74
2022/01/19 17:30:56;;;;;;;74.20;32.25;;;;;;;;;;6260349;28;20021;-74
2022/01/19 17:33:56;;;;;;;95.50;45.05;;;;;;;;;;6267686;28;20045;-74
2022/01/19 17:36:58;;;;;;;76.22;36.85;;;;;;;;;;6243625;28;20495;-74
2022/01/19 17:39:59;;;;;;;67.27;32.47;;;;;;;;;;6258518;28;20021;-74
2022/01/19 17:42:59;;;;;;;76.70;31.80;;;;;;;;;;6258347;28;20022;-74
2022/01/19 17:46:11;;;;;;;75.78;41.13;;;;;;;;;;6250397;28;20029;-74
2022/01/19 17:52:23;;;;;;;159.38;69.32;;;;;;;;;;6252777;28;20109;-74
2022/01/19 17:55:23;;;;;;;194.30;77.60;;;;;;;;;;6254923;28;20449;-74
2022/01/19 17:58:24;;;;;;;107.25;42.30;;;;;;;;;;6271236;28;20055;-74
2022/01/19 18:01:25;;;;;;;88.47;40.80;;;;;;;;;;6272579;28;20017;-74
2022/01/19 18:04:26;;;;;;;90.22;40.75;;;;;;;;;;6271121;28;20116;-74
2022/01/19 18:07:26;;;;;;;91.10;39.05;;;;;;;;;;6262336;28;20033;-74
2022/01/19 18:10:27;;;;;;;87.55;42.33;;;;;;;;;;6256708;28;20397;-74
2022/01/19 18:13:27;;;;;;;85.22;41.65;;;;;;;;;;6262712;28;20056;-74
2022/01/19 18:16:28;;;;;;;68.60;31.65;;;;;;;;;;6259949;28;20021;-74
2022/01/19 18:19:28;;;;;;;84.72;41.78;;;;;;;;;;6256325;28;20025;-73
2022/01/19 18:22:28;;;;;;;103.45;44.65;;;;;;;;;;6259894;28;20032;-73
2022/01/19 18:25:29;;;;;;;76.22;36.08;;;;;;;;;;6258364;28;20021;-73
2022/01/19 18:28:29;;;;;;;73.38;33.80;;;;;;;;;;6267614;28;20028;-73
2022/01/19 18:31:29;;;;;;;81.93;36.80;;;;;;;;;;6272087;28;20485;-73
2022/01/19 18:34:30;;;;;;;124.30;52.97;;;;;;;;;;6271936;28;20140;-72
2022/01/19 18:37:31;;;;;;;101.03;43.33;;;;;;;;;;6271091;28;20079;-72
2022/01/19 18:40:33;;;;;;;101.93;42.65;;;;;;;;;;6271892;28;20065;-72
2022/01/19 18:43:33;;;;;;;;;;;;;;;;;;6269553;28;20055;-72
2022/01/19 18:46:34;;;;;;;72.60;31.70;;;;;;;;;;6271823;28;19905;-72
2022/01/19 18:49:34;;;;;;;76.53;34.10;;;;;;;;;;6271207;28;20025;-72
2022/01/19 18:52:38;;;;;;;74.85;34.13;;;;;;;;;;6271491;28;20126;-72
2022/01/19 18:55:40;;;;;;;54.38;26.50;;;;;;;;;;6271553;28;20323;-71
2022/01/19 18:58:40;;;;;;;55.15;28.90;;;;;;;;;;6246493;28;20053;-71
2022/01/19 19:01:45;;;;;;;68.65;28.88;;;;;;;;;;6244081;28;20095;-71
2022/01/19 19:04:46;;;;;;;69.10;29.15;;;;;;;;;;6245872;28;20026;-71
2022/01/19 19:07:47;;;;;;;61.70;28.45;;;;;;;;;;6264228;28;20024;-71
2022/01/19 19:11:17;;;;;;;62.97;27.23;;;;;;;;;;6264507;28;20448;-71
2022/01/19 19:14:13;;;;;;;70.38;29.20;;;;;;;;;;6261163;28;20374;-71
2022/01/19 19:17:15;;;;;;;59.75;26.30;;;;;;;;;;6254008;28;20024;-71
2022/01/19 19:20:15;;;;;;;59.70;25.63;;;;;;;;;;6264883;28;20389;-71